Latest Coastal Weather Observations for Lockhart River

IDQ60701

Issued at 9:51 pm EST Tuesday 17 October 2017 (issued every 10 minutes, with the page automatically refreshed every 10 minutes)

About coastal observations | Map of coastal stations | Coastal observations for QLD | Marine services | Other Formats
Station Details ID: 028008 Name: LOCKHART RIVER AIRPORT Lat: -12.79 Lon: 143.30 Height: 18.5 m
Data from the previous 72 hours. | See also: Recent months at Lockhart River
Date/Time
EST
Temp
°C
Wind Pressure Rain since
9am
mm
Weather Cloud Vis
km
Sea
Height
m
Swell
Dir  Spd
kts
Gust
kts
hPa Trend Height
m
Period
s
Dir
17/09:30pm 23.9 SSW 9 16 1010.0 - 0.6 - Cloudy - - - - -
17/09:00pm 24.7 SSE 7 8 1009.6 - 0.4 - Cloudy - - - - -
17/08:31pm 24.8 ESE 7 11 1009.3 - 0.4 - Partly cloudy - - - - -
17/08:30pm 24.8 ESE 7 9 1009.2 - 0.4 - Partly cloudy - - - - -
17/08:00pm 25.0 SE 10 14 1009.2 - 0.4 - Partly cloudy - - - - -
17/07:50pm 25.1 SE 9 12 1008.8 - 0.4 - Partly cloudy - - - - -
17/07:30pm 24.9 ESE 7 11 1008.5 - 0.4 - Partly cloudy - - - - -
17/07:10pm 25.0 ESE 6 9 1008.3 - 0.4 - Partly cloudy - - - - -
17/07:00pm 25.0 E 5 9 1008.1 - 0.4 - Partly cloudy - - - - -
17/06:30pm 26.1 ESE 9 13 1007.8 - 0.0 - Partly cloudy - - - - -
17/06:00pm 26.5 ESE 7 12 1007.2 - 0.0 - Cloudy - - - - -
17/05:30pm 27.1 ESE 7 10 1006.6 - 0.0 - Cloudy - - - - -
17/05:00pm 27.5 ESE 8 11 1006.2 - 0.0 - Partly cloudy - - - - -
17/04:30pm 28.3 E 7 10 1006.3 - 0.0 - Partly cloudy - - - - -
17/04:00pm 28.2 E 8 13 1006.1 - 0.0 - Partly cloudy - - - - -
17/03:30pm 29.3 E 9 14 1006.2 - 0.0 - Partly cloudy - - - - -
17/03:00pm 29.4 ESE 9 15 1006.4 - 0.0 - Partly cloudy - - - - -
17/02:30pm 28.6 E 9 12 1006.8 - 0.0 - - - - - - -
17/02:00pm 28.9 ESE 10 13 1007.3 - 0.0 - Partly cloudy - - - - -
17/01:30pm 28.4 ESE 9 15 1007.8 - 0.0 - - - - - - -
17/01:00pm 27.9 ESE 9 14 1008.2 - 0.0 - Partly cloudy - - - - -
17/12:30pm 28.2 E 10 14 1008.7 - 0.0 - Partly cloudy - - - - -
17/12:00pm 28.5 ESE 9 15 1009.3 - 0.0 - Mostly cloudy - - - - -
17/11:30am 29.7 ESE 9 13 1009.6 - 0.0 - Partly cloudy - - - - -
17/11:00am 29.5 ESE 9 13 1010.0 - 0.0 - Partly cloudy - - - - -
17/10:30am 29.3 ESE 8 13 1010.3 - 0.0 - Partly cloudy - - - - -
17/10:00am 29.0 ESE 9 13 1010.5 - 0.0 - Partly cloudy - - - - -
17/09:30am 28.6 SE 9 13 1010.8 - 0.0 - Partly cloudy - - - - -
17/09:00am 27.5 ESE 6 10 1010.9 - 13.8 - Mostly cloudy - - - - -
17/08:30am 26.2 S 3 6 1010.8 - 13.8 - Partly cloudy - - - - -
17/08:00am 25.0 S 5 7 1010.3 - 13.8 - Partly cloudy - - - - -
17/07:30am 24.0 CALM 0 4 1009.8 - 13.6 - - - - - - -
17/07:13am 23.6 CALM 0 0 1009.3 - 13.6 - Partly cloudy - - - - -
17/07:00am 23.2 CALM 0 0 1009.2 - 13.6 - Partly cloudy - - - - -
17/06:30am 22.8 CALM 0 0 1008.8 - 13.6 - Cloudy - - - - -
17/06:13am 22.4 CALM 0 0 1008.4 - 13.6 - Partly cloudy - - - - -
17/06:00am 22.3 CALM 0 0 1008.3 - 13.6 - - - - - - -
17/05:42am 22.6 CALM 0 0 1008.1 - 13.6 - Partly cloudy - - - - -
17/05:30am 22.8 CALM 0 0 1008.1 - 13.6 - Partly cloudy - - - - -
17/05:00am 22.8 CALM 0 0 1007.8 - 13.6 - Cloudy - - - - -
17/04:30am 22.8 CALM 0 0 1007.6 - 13.6 - Cloudy - - - - -
17/04:00am 22.7 SE 3 5 1007.3 - 13.6 - Partly cloudy - - - - -
17/03:30am 22.8 SSE 3 4 1007.5 - 13.6 - Partly cloudy - - - - -
17/03:26am 22.8 S 3 4 1007.5 - 13.6 - Partly cloudy - - - - -
17/03:00am 22.8 S 1 4 1007.4 - 13.6 Recent precip. Cloudy - - - - -
17/02:30am 23.0 S 5 8 1007.8 - 13.6 - Partly cloudy - - - - -
17/02:00am 23.1 SE 6 9 1008.2 - 12.4 - Partly cloudy - - - - -
17/01:55am 23.1 ESE 6 8 1008.3 - 11.0 - Partly cloudy - - - - -
17/01:30am 23.4 SSE 10 15 1008.3 - 7.8 - Partly cloudy - - - - -
17/01:00am 25.1 SSW 1 5 1008.6 - 5.4 - Partly cloudy - - - - -
17/12:30am 25.2 SSW 1 3 1009.1 - 5.4 - Partly cloudy - - - - -
17/12:00am 25.3 CALM 0 0 1009.3 - 5.4 Rain Cloudy - - - - -
 
Date/Time
EST
Temp
°C
Wind Pressure Rain since
9am
mm
Weather Cloud Vis
km
Sea
Height
m
Swell
Dir  Spd
kts
Gust
kts
hPa Trend Height
m
Period
s
Dir
16/11:30pm 25.4 ESE 3 5 1009.7 - 3.2 - Cloudy - - - - -
16/11:00pm 25.6 NW 2 4 1009.8 - 1.4 - Partly cloudy - - - - -
16/10:30pm 25.7 S 4 5 1010.0 - 1.0 - Partly cloudy - - - - -
16/10:23pm 25.7 SSE 4 6 1010.1 - 1.0 - Partly cloudy - - - - -
16/10:00pm 25.8 SE 6 7 1009.9 - 1.0 - Partly cloudy - - - - -
16/09:42pm 25.8 SSE 7 9 1009.6 - 1.0 - Partly cloudy - - - - -
16/09:30pm 25.7 ESE 6 9 1009.5 - 1.0 - Partly cloudy - - - - -
16/09:00pm 26.0 ESE 5 8 1009.0 - 1.0 - Cloudy - - - - -
16/08:57pm 26.0 SE 5 8 1008.9 - 1.0 - Partly cloudy - - - - -
16/08:30pm 25.8 E 2 5 1008.8 - 1.0 - Partly cloudy - - - - -
16/08:00pm 25.7 ENE 3 5 1008.5 - 1.0 - Partly cloudy - - - - -
16/07:38pm 25.8 ENE 5 7 1008.0 - 1.0 - Partly cloudy - - - - -
16/07:30pm 25.8 E 5 7 1007.9 - 1.0 - Partly cloudy - - - - -
16/07:00pm 25.8 E 4 7 1007.3 - 1.0 - Partly cloudy - - - - -
16/06:59pm 25.9 ENE 4 7 1007.3 - 1.0 - Partly cloudy - - - - -
16/06:30pm 26.0 E 4 6 1006.9 - 0.8 - Partly cloudy - - - - -
16/06:00pm 26.6 E 5 6 1007.0 - 0.4 Rain Mostly cloudy - - - - -
16/05:30pm 27.0 ESE 8 11 1006.6 - 0.0 - Partly cloudy - - - - -
16/05:00pm 27.3 E 8 12 1006.2 - 0.0 - Partly cloudy - - - - -
16/04:54pm 27.3 E 9 15 1006.0 - 0.0 - Partly cloudy - - - - -
16/04:30pm 27.8 E 10 15 1006.0 - 0.0 - Partly cloudy - - - - -
16/04:00pm 28.5 E 11 15 1005.9 - 0.0 - Partly cloudy - - - - -
16/03:50pm 28.7 E 13 19 1005.7 - 0.0 - Partly cloudy - - - - -
16/03:30pm 29.0 E 12 19 1005.9 - 0.0 - Partly cloudy - - - - -
16/03:00pm 30.0 E 11 21 1006.5 - 0.0 - Cloudy - - - - -
16/02:30pm 30.2 E 10 17 1007.0 - 0.0 - Partly cloudy - - - - -
16/02:00pm 29.5 E 10 16 1007.5 - 0.0 - Partly cloudy - - - - -
16/01:30pm 29.5 E 11 17 1007.9 - 0.0 - Partly cloudy - - - - -
16/01:00pm 29.8 ESE 9 13 1008.5 - 0.0 - Partly cloudy - - - - -
16/12:30pm 29.4 ESE 8 11 1008.8 - 0.0 - Partly cloudy - - - - -
16/12:00pm 29.1 E 10 16 1009.2 - 0.0 - Cloudy - - - - -
16/11:30am 28.4 ESE 10 15 1009.6 - 0.0 - Partly cloudy - - - - -
16/11:00am 28.6 ESE 11 17 1009.6 - 0.0 - Partly cloudy - - - - -
16/10:30am 29.5 E 9 14 1009.9 - 0.0 - Partly cloudy - - - - -
16/10:00am 28.1 SE 12 16 1010.3 - 0.0 - Partly cloudy - - - - -
16/09:30am 28.2 E 9 14 1010.3 - 0.0 - Partly cloudy - - - - -
16/09:00am 28.4 SE 11 14 1010.2 - 0.0 - Mostly clear - - - - -
16/08:30am 26.6 SSE 12 15 1010.3 - 0.0 - Partly cloudy - - - - -
16/08:08am 26.8 SE 12 16 1010.1 - 0.0 - Partly cloudy - - - - -
16/08:00am 26.8 SE 14 17 1010.0 - 0.0 - Partly cloudy - - - - -
16/07:30am 25.8 SE 6 8 1009.7 - 0.0 - Partly cloudy - - - - -
16/07:00am 24.3 CALM 0 0 1009.4 - 0.0 - Partly cloudy - - - - -
16/06:38am 23.8 CALM 0 0 1009.3 - 0.0 - Partly cloudy - - - - -
16/06:30am 23.6 CALM 0 0 1009.3 - 0.0 - Partly cloudy - - - - -
16/06:12am 23.2 CALM 0 0 1008.9 - 0.0 - Partly cloudy - - - - -
16/06:00am 23.6 CALM 0 0 1009.0 - 0.0 - Cloudy - - - - -
16/05:33am 23.4 CALM 0 0 1008.8 - 0.0 - Partly cloudy - - - - -
16/05:30am 23.3 CALM 0 0 1008.7 - 0.0 - Partly cloudy - - - - -
16/05:00am 23.6 SE 1 3 1008.3 - 0.0 - Partly cloudy - - - - -
16/04:56am 23.8 SE 1 3 1008.3 - 0.0 - Partly cloudy - - - - -
16/04:39am 24.1 SE 3 5 1008.1 - 0.0 - Partly cloudy - - - - -
16/04:30am 24.1 SE 3 5 1007.9 - 0.0 - Partly cloudy - - - - -
16/04:00am 24.0 CALM 0 0 1007.7 - 0.0 - Partly cloudy - - - - -
16/03:39am 23.8 CALM 0 0 1007.5 - 0.0 - Partly cloudy - - - - -
16/03:30am 23.9 CALM 0 0 1007.6 - 0.0 - Partly cloudy - - - - -
16/03:04am 24.2 CALM 0 0 1007.6 - 0.0 - Partly cloudy - - - - -
16/03:00am 24.2 CALM 0 0 1007.5 - 0.0 - Cloudy - - - - -
16/02:56am 24.2 CALM 0 0 1007.6 - 0.0 - Partly cloudy - - - - -
16/02:30am 24.2 CALM 0 0 1007.8 - 0.0 - Partly cloudy - - - - -
16/02:00am 24.0 CALM 0 0 1007.9 - 0.0 - Partly cloudy - - - - -
16/01:40am 23.9 CALM 0 0 1008.0 - 0.0 - Partly cloudy - - - - -
16/01:30am 23.9 CALM 0 0 1008.1 - 0.0 - Partly cloudy - - - - -
16/01:00am 24.1 CALM 0 0 1008.3 - 0.0 - Partly cloudy - - - - -
16/12:34am 24.3 S 2 4 1008.5 - 0.0 - Partly cloudy - - - - -
16/12:30am 24.2 S 3 4 1008.5 - 0.0 - Partly cloudy - - - - -
16/12:00am 24.0 CALM 0 0 1008.4 - 0.0 - Cloudy - - - - -
 
Date/Time
EST
Temp
°C
Wind Pressure Rain since
9am
mm
Weather Cloud Vis
km
Sea
Height
m
Swell
Dir  Spd
kts
Gust
kts
hPa Trend Height
m
Period
s
Dir
15/11:30pm 24.2 CALM 0 0 1008.3 - 0.0 - Partly cloudy - - - - -
15/11:00pm 24.2 CALM 0 0 1008.1 - 0.0 - Partly cloudy - - - - -
15/10:30pm 24.4 CALM 0 0 1008.0 - 0.0 - Partly cloudy - - - - -
15/10:22pm 24.3 CALM 0 0 1008.1 - 0.0 - Partly cloudy - - - - -
15/10:13pm 24.6 CALM 0 0 1008.1 - 0.0 - Partly cloudy - - - - -
15/10:00pm 24.8 CALM 0 0 1008.2 - 0.0 - Partly cloudy - - - - -
15/09:30pm 25.4 S 5 6 1008.1 - 0.0 - Partly cloudy - - - - -
15/09:05pm 25.7 SSE 5 7 1007.8 - 0.0 - Partly cloudy - - - - -
15/09:00pm 25.8 SSE 5 7 1007.8 - 0.0 - Cloudy - - - - -
15/08:31pm 26.1 SSE 5 8 1007.4 - 0.0 - Partly cloudy - - - - -
15/08:30pm 26.1 SE 5 8 1007.5 - 0.0 - Partly cloudy - - - - -
15/08:00pm 26.3 SE 7 9 1007.2 - 0.0 - Partly cloudy - - - - -
15/07:41pm 26.2 SE 6 8 1007.0 - 0.0 - Partly cloudy - - - - -
15/07:30pm 26.3 SE 7 9 1006.8 - 0.0 - Partly cloudy - - - - -
15/07:00pm 26.5 ESE 8 11 1006.4 - 0.0 - - - - - - -
15/06:30pm 26.9 ESE 8 13 1006.2 - 0.0 - - - - - - -
15/06:00pm 27.7 ESE 8 10 1006.0 - 0.0 - - - - - - -
15/05:30pm 28.2 ESE 9 12 1005.9 - 0.0 - - - - - - -
15/05:00pm 29.0 ESE 11 15 1005.6 - 0.0 - - - - - - -
15/04:30pm 29.4 ESE 10 14 1005.4 - 0.0 - - - - - - -
15/04:00pm 30.1 E 9 14 1005.3 - 0.0 - - - - - - -
15/03:30pm 30.3 E 9 13 1005.3 - 0.0 - - - - - - -
15/03:00pm 30.2 E 9 13 1005.8 - 0.0 - - - - - - -
15/02:30pm 30.2 E 10 14 1006.0 - 0.0 - - - - - - -
15/02:00pm 29.9 ESE 11 16 1006.5 - 0.0 - Partly cloudy - - - - -
15/01:30pm 30.4 ESE 11 19 1007.0 - 0.0 - Partly cloudy - - - - -
15/01:00pm 30.6 E 11 17 1007.5 - 0.0 - Partly cloudy - - - - -
15/12:30pm 29.5 E 10 14 1008.1 - 0.0 - Partly cloudy - - - - -
15/12:00pm 29.0 E 12 15 1008.6 - 0.0 - Mostly cloudy - - - - -
15/11:30am 30.4 E 10 17 1009.0 - 0.0 - Partly cloudy - - - - -
15/11:00am 29.3 E 10 15 1009.2 - 0.0 - Partly cloudy - - - - -
15/10:30am 29.3 ESE 10 16 1009.6 - 0.0 - Partly cloudy - - - - -
15/10:00am 29.2 ESE 9 16 1009.8 - 0.0 - Partly cloudy - - - - -
15/09:30am 28.4 E 10 13 1009.9 - 0.0 - Partly cloudy - - - - -
15/09:00am 28.3 E 9 14 1009.8 - 0.0 - Cloudy - - - - -
15/08:51am 28.7 E 9 14 1009.8 - 0.0 - Partly cloudy - - - - -
15/08:30am 27.9 ESE 10 15 1010.0 - 0.0 - Partly cloudy - - - - -
15/08:11am 27.1 SE 8 13 1009.9 - 0.0 - Partly cloudy - - - - -
15/08:00am 26.6 SE 5 7 1009.7 - 0.0 - Partly cloudy - - - - -
15/07:30am 24.7 S 4 4 1009.4 - 0.0 - Partly cloudy - - - - -
15/07:00am 22.8 CALM 0 0 1009.0 - 0.0 - Partly cloudy - - - - -
15/06:30am 21.6 CALM 0 0 1008.8 - 0.0 - - - - - - -
15/06:00am 21.5 CALM 0 0 1008.5 - 0.0 - Mostly clear - - - - -
15/05:30am 21.8 CALM 0 0 1008.2 - 0.0 - - - - - - -
15/05:00am 21.9 CALM 0 0 1008.0 - 0.0 - Partly cloudy - - - - -
15/04:30am 21.9 WSW 1 4 1007.6 - 0.0 - - - - - - -
15/04:00am 22.3 CALM 0 0 1007.5 - 0.0 - Partly cloudy - - - - -
15/03:47am 22.4 CALM 0 0 1007.5 - 0.0 - Partly cloudy - - - - -
15/03:30am 22.4 CALM 0 0 1007.4 - 0.0 - Partly cloudy - - - - -
15/03:11am 22.3 CALM 0 0 1007.4 - 0.0 - Partly cloudy - - - - -
15/03:00am 22.4 CALM 0 0 1007.3 - 0.0 - Partly cloudy - - - - -
15/02:30am 23.0 CALM 0 0 1007.5 - 0.0 - Partly cloudy - - - - -
15/02:11am 23.7 CALM 0 3 1007.7 - 0.0 - Partly cloudy - - - - -
15/02:00am 23.6 CALM 0 2 1007.7 - 0.0 - Partly cloudy - - - - -
15/01:30am 23.9 S 3 6 1007.9 - 0.0 - Partly cloudy - - - - -
15/01:00am 25.2 ESE 5 8 1008.1 - 0.0 - Partly cloudy - - - - -
15/12:30am 25.3 ESE 6 8 1008.5 - 0.0 - Partly cloudy - - - - -
15/12:00am 25.1 E 6 10 1008.7 - 0.0 - Mostly clear - - - - -
 
Date/Time
EST
Temp
°C
Wind Pressure Rain since
9am
mm
Weather Cloud Vis
km
Sea
Height
m
Swell
Dir  Spd
kts
Gust
kts
hPa Trend Height
m
Period
s
Dir
14/11:30pm 23.6 W 2 3 1009.0 - 0.0 - Partly cloudy - - - - -
14/11:00pm 24.8 SE 4 6 1009.2 - 0.0 - Partly cloudy - - - - -
14/10:30pm 24.3 SSE 4 6 1009.4 - 0.0 - Partly cloudy - - - - -
14/10:00pm 23.5 CALM 0 0 1009.5 - 0.0 - Partly cloudy - - - - -

Other Formats:

Comma delimited format used in spreadsheet applications
http://www.bom.gov.au/fwo/IDQ60701/IDQ60701.94186.axf

JavaScript Object Notation format (JSON) in row-major order
http://www.bom.gov.au/fwo/IDQ60701/IDQ60701.94186.json